createdAt,value
2019-05-14T00:01:13.597Z,51.82
2019-05-14T00:04:02.108Z,53.54
2019-05-14T00:06:51.867Z,51.42
2019-05-14T00:09:41.144Z,51.80
2019-05-14T00:12:27.969Z,52.02
2019-05-14T00:15:16.257Z,52.13
2019-05-14T00:18:03.950Z,51.18
2019-05-14T00:20:54.671Z,51.70
2019-05-14T00:23:44.664Z,51.17
2019-05-14T00:26:34.445Z,50.98
2019-05-14T00:29:22.204Z,51.39
2019-05-14T00:32:11.248Z,51.08
2019-05-14T00:34:58.639Z,50.88
2019-05-14T00:37:46.044Z,50.62
2019-05-14T00:40:33.479Z,50.76
2019-05-14T00:43:21.669Z,50.95
2019-05-14T00:46:09.175Z,50.19
2019-05-14T00:48:56.503Z,50.48
2019-05-14T00:51:44.016Z,51.08
2019-05-14T00:54:32.205Z,51.17
2019-05-14T00:57:21.150Z,50.35
2019-05-14T01:00:11.498Z,49.93
2019-05-14T01:02:58.125Z,50.46
2019-05-14T01:05:45.750Z,50.57
2019-05-14T01:08:33.048Z,50.31
2019-05-14T01:11:22.179Z,51.27
2019-05-14T01:14:12.028Z,50.53
2019-05-14T01:16:59.001Z,50.33
2019-05-14T01:19:46.606Z,50.10
2019-05-14T01:22:34.354Z,50.61
2019-05-14T01:25:23.677Z,50.02
2019-05-14T01:28:11.647Z,49.74
2019-05-14T01:31:01.016Z,50.15
2019-05-14T01:33:48.165Z,49.79
2019-05-14T01:36:35.941Z,49.82
2019-05-14T01:39:24.589Z,49.30
2019-05-14T01:42:12.710Z,49.75
2019-05-14T01:45:02.571Z,49.72
2019-05-14T01:47:51.923Z,50.12
2019-05-14T01:50:41.728Z,49.96
2019-05-14T01:53:31.210Z,49.75
2019-05-14T01:56:18.648Z,49.77
2019-05-14T01:59:06.348Z,49.80
2019-05-14T02:01:53.709Z,49.86
2019-05-14T02:04:42.685Z,49.96
2019-05-14T02:07:31.416Z,49.51
2019-05-14T02:10:18.880Z,50.05
2019-05-14T02:13:06.267Z,50.09
2019-05-14T02:15:53.873Z,49.88
2019-05-14T02:18:41.747Z,50.23
2019-05-14T02:21:31.702Z,49.79
2019-05-14T02:24:21.687Z,49.70
2019-05-14T02:27:12.275Z,50.08
2019-05-14T02:30:01.701Z,50.21
2019-05-14T02:32:49.945Z,50.02
2019-05-14T02:35:39.837Z,50.02
2019-05-14T02:38:29.959Z,50.16
2019-05-14T02:41:19.271Z,50.00
2019-05-14T02:44:05.073Z,49.95
2019-05-14T02:46:52.518Z,50.23
2019-05-14T02:49:40.320Z,50.19
2019-05-14T02:52:29.207Z,50.03
2019-05-14T02:55:19.432Z,50.61
2019-05-14T02:58:05.707Z,50.41
2019-05-14T03:00:53.748Z,50.36
2019-05-14T03:03:41.091Z,50.48
2019-05-14T03:06:29.304Z,50.41
2019-05-14T03:09:20.035Z,50.62
2019-05-14T03:12:05.922Z,50.52
2019-05-14T03:14:53.574Z,50.49
2019-05-14T03:17:41.266Z,50.54
2019-05-14T03:20:29.433Z,50.65
2019-05-14T03:23:19.606Z,50.81
2019-05-14T03:26:09.348Z,50.93
2019-05-14T03:28:55.580Z,51.08
2019-05-14T03:31:43.783Z,50.78
2019-05-14T03:34:32.969Z,50.98
2019-05-14T03:37:23.281Z,50.59
2019-05-14T03:40:09.647Z,50.84
2019-05-14T03:42:59.779Z,51.13
2019-05-14T03:45:49.271Z,50.91
2019-05-14T03:48:35.381Z,51.17
2019-05-14T03:51:22.777Z,50.93
2019-05-14T03:54:12.686Z,51.05
2019-05-14T03:57:00.397Z,51.04
2019-05-14T03:59:49.883Z,50.91
2019-05-14T04:02:39.129Z,51.10
2019-05-14T04:05:29.406Z,50.78
2019-05-14T04:08:21.270Z,51.41
2019-05-14T04:11:09.586Z,51.19
2019-05-14T04:14:00.166Z,51.46
2019-05-14T04:17:01.254Z,51.14
2019-05-14T04:19:39.754Z,51.22
2019-05-14T04:22:29.906Z,51.52
2019-05-14T04:25:19.503Z,51.30
2019-05-14T04:28:05.776Z,51.66
2019-05-14T04:30:59.376Z,51.12
2019-05-14T04:33:50.073Z,51.39
2019-05-14T04:36:35.613Z,51.41
2019-05-14T04:39:23.311Z,51.52
2019-05-14T04:42:11.049Z,51.34
2019-05-14T04:45:00.863Z,51.54
2019-05-14T04:47:49.794Z,51.69
2019-05-14T04:50:40.479Z,51.41
2019-05-14T04:53:30.321Z,51.50
2019-05-14T04:56:15.676Z,50.72
2019-05-14T04:59:03.176Z,49.84
2019-05-14T05:01:53.329Z,47.91
2019-05-14T05:04:41.492Z,46.49
2019-05-14T05:07:30.078Z,45.51
2019-05-14T05:10:19.327Z,44.42
2019-05-14T05:13:09.155Z,44.39
2019-05-14T05:15:59.113Z,44.50
2019-05-14T05:18:44.921Z,43.65
2019-05-14T05:21:32.508Z,42.89
2019-05-14T05:24:20.303Z,42.28
2019-05-14T05:27:09.344Z,41.24
2019-05-14T05:29:59.011Z,40.49
2019-05-14T05:32:46.417Z,41.05
2019-05-14T05:35:33.953Z,39.91
2019-05-14T05:38:21.621Z,38.93
2019-05-14T05:41:09.269Z,38.11
2019-05-14T05:43:58.883Z,37.04
2019-05-14T05:46:49.360Z,36.43
2019-05-14T05:49:38.175Z,35.65
2019-05-14T05:52:28.042Z,35.03
2019-05-14T05:55:15.321Z,35.05
2019-05-14T05:58:03.941Z,35.78
2019-05-14T06:00:51.777Z,35.48
2019-05-14T06:03:39.572Z,33.35
2019-05-14T06:06:28.367Z,33.19
2019-05-14T06:09:18.062Z,32.58
2019-05-14T06:12:05.124Z,32.29
2019-05-14T06:14:52.824Z,31.67
2019-05-14T06:17:40.465Z,34.68
2019-05-14T06:20:28.298Z,33.78
2019-05-14T06:23:15.847Z,33.97
2019-05-14T06:26:03.045Z,35.32
2019-05-14T06:28:50.284Z,33.57
2019-05-14T06:31:38.682Z,31.89
2019-05-14T06:34:29.020Z,34.30
2019-05-14T06:37:15.927Z,35.49
2019-05-14T06:40:04.331Z,32.13
2019-05-14T06:42:51.710Z,35.39
2019-05-14T06:45:39.550Z,34.87
2019-05-14T06:48:33.699Z,35.32
2019-05-14T06:51:16.335Z,34.19
2019-05-14T06:54:04.115Z,35.33
2019-05-14T06:56:51.978Z,36.30
2019-05-14T06:59:40.044Z,34.67
2019-05-14T07:02:28.483Z,36.75
2019-05-14T07:05:18.679Z,35.85
2019-05-14T07:08:05.382Z,35.62
2019-05-14T07:10:53.318Z,31.93
2019-05-14T07:13:40.462Z,31.06
2019-05-14T07:16:28.829Z,30.10
2019-05-14T07:19:19.048Z,30.16
2019-05-14T07:22:05.554Z,30.10
2019-05-14T07:24:53.491Z,30.77
2019-05-14T07:27:40.934Z,29.44
2019-05-14T07:30:29.132Z,29.56
2019-05-14T07:33:18.299Z,30.63
2019-05-14T07:36:05.739Z,29.22
2019-05-14T07:38:56.381Z,31.11
2019-05-14T07:41:42.153Z,32.41
2019-05-14T07:44:29.919Z,33.45
2019-05-14T07:47:18.701Z,31.47
2019-05-14T07:50:08.615Z,31.69
2019-05-14T07:52:55.549Z,33.87
2019-05-14T07:55:43.238Z,33.45
2019-05-14T07:58:31.116Z,34.86
2019-05-14T08:01:18.823Z,33.59
2019-05-14T08:04:10.229Z,32.96
2019-05-14T08:06:58.049Z,34.52
2019-05-14T08:09:48.000Z,34.59
2019-05-14T08:12:34.910Z,32.67
2019-05-14T08:15:22.672Z,32.05
2019-05-14T08:18:10.239Z,32.22
2019-05-14T08:20:59.238Z,33.53
2019-05-14T08:23:48.088Z,32.19
2019-05-14T08:26:38.037Z,32.76
2019-05-14T08:29:24.706Z,31.69
2019-05-14T08:32:12.058Z,31.18
2019-05-14T08:34:59.488Z,32.60
2019-05-14T08:37:49.032Z,32.15
2019-05-14T08:40:37.859Z,32.84
2019-05-14T08:43:24.708Z,34.34
2019-05-14T08:46:12.279Z,33.31
2019-05-14T08:48:59.589Z,33.81
2019-05-14T08:51:49.592Z,33.99
2019-05-14T08:54:38.869Z,33.86
2019-05-14T08:57:26.157Z,34.47
2019-05-14T09:00:18.291Z,33.71
2019-05-14T09:03:05.730Z,33.48
2019-05-14T09:05:53.283Z,33.89
2019-05-14T09:08:40.625Z,34.40
2019-05-14T09:11:35.104Z,34.65
2019-05-14T09:14:18.845Z,33.24
2019-05-14T09:17:06.309Z,32.58
2019-05-14T09:20:02.233Z,31.85
2019-05-14T09:22:42.869Z,31.91
2019-05-14T09:25:30.721Z,31.94
2019-05-14T09:28:18.962Z,31.99
2019-05-14T09:31:08.427Z,30.90
2019-05-14T09:33:55.466Z,32.03
2019-05-14T09:36:42.697Z,31.52
2019-05-14T09:39:33.197Z,31.53
2019-05-14T09:42:20.862Z,32.89
2019-05-14T09:45:11.063Z,31.58
2019-05-14T09:47:58.509Z,31.77
2019-05-14T09:50:48.987Z,32.47
2019-05-14T09:53:38.124Z,30.36
2019-05-14T09:56:24.641Z,30.50
2019-05-14T09:59:12.335Z,29.82
2019-05-14T10:02:00.208Z,28.77
2019-05-14T10:04:49.060Z,29.06
2019-05-14T10:07:39.215Z,27.89
2019-05-14T10:10:25.888Z,27.70
2019-05-14T10:13:13.330Z,27.18
2019-05-14T10:16:01.170Z,27.07
2019-05-14T10:18:52.384Z,28.03
2019-05-14T10:21:38.803Z,26.02
2019-05-14T10:24:28.964Z,26.14
2019-05-14T10:27:22.344Z,26.69
2019-05-14T10:30:10.572Z,26.38
2019-05-14T10:33:07.099Z,27.01
2019-05-14T10:35:48.468Z,26.64
2019-05-14T10:38:38.781Z,25.79
2019-05-14T10:41:28.811Z,25.51
2019-05-14T10:44:18.770Z,26.80
2019-05-14T10:47:05.517Z,26.81
2019-05-14T10:49:53.000Z,25.31
2019-05-14T10:52:40.590Z,26.35
2019-05-14T10:55:28.155Z,26.36
2019-05-14T10:58:19.219Z,27.18
2019-05-14T11:01:10.988Z,26.28
2019-05-14T11:03:55.575Z,26.87
2019-05-14T11:06:42.873Z,25.40
2019-05-14T11:09:30.243Z,26.57
2019-05-14T11:12:19.247Z,26.46
2019-05-14T11:15:07.325Z,26.33
2019-05-14T11:17:54.765Z,26.34
2019-05-14T11:20:42.512Z,26.67
2019-05-14T11:23:30.193Z,25.80
2019-05-14T11:26:20.514Z,26.69
2019-05-14T11:29:07.887Z,26.18
2019-05-14T11:31:55.558Z,26.08
2019-05-14T11:34:43.092Z,25.82
2019-05-14T11:37:30.868Z,27.01
2019-05-14T11:40:19.072Z,25.41
2019-05-14T11:43:08.396Z,25.86
2019-05-14T11:45:55.579Z,25.30
2019-05-14T11:48:43.264Z,25.32
2019-05-14T11:51:58.817Z,26.35
2019-05-14T11:54:23.011Z,26.26
2019-05-14T11:57:11.689Z,25.44
2019-05-14T11:59:58.586Z,26.04
2019-05-14T12:02:45.600Z,26.05
2019-05-14T12:05:33.078Z,27.42
2019-05-14T12:08:21.051Z,27.59
2019-05-14T12:11:08.864Z,27.54
2019-05-14T12:13:55.981Z,27.51
2019-05-14T12:16:43.459Z,27.80
2019-05-14T12:19:33.754Z,27.44
2019-05-14T12:22:22.090Z,27.25
2019-05-14T12:25:10.217Z,27.52
2019-05-14T12:27:58.932Z,27.60
2019-05-14T12:30:48.949Z,27.59
2019-05-14T12:33:35.995Z,27.69
2019-05-14T12:36:23.499Z,27.01
2019-05-14T12:39:10.736Z,27.51
2019-05-14T12:41:58.277Z,28.47
2019-05-14T12:44:45.874Z,28.68
2019-05-14T12:47:33.182Z,27.70
2019-05-14T12:50:21.951Z,27.63
2019-05-14T12:53:09.521Z,26.88
2019-05-14T12:55:56.841Z,27.39
2019-05-14T12:58:45.925Z,28.15
2019-05-14T13:01:33.535Z,27.46
2019-05-14T13:04:20.822Z,27.84
2019-05-14T13:07:09.224Z,27.60
2019-05-14T13:09:58.421Z,26.84
2019-05-14T13:12:48.166Z,27.07
2019-05-14T13:15:34.429Z,27.83
2019-05-14T13:18:21.818Z,26.21
2019-05-14T13:21:09.863Z,26.45
2019-05-14T13:23:57.169Z,27.40
2019-05-14T13:26:44.537Z,28.35
2019-05-14T13:29:32.031Z,28.95
2019-05-14T13:32:19.776Z,27.98
2019-05-14T13:35:12.902Z,27.62
2019-05-14T13:37:58.634Z,28.02
2019-05-14T13:40:48.885Z,28.65
2019-05-14T13:43:38.281Z,28.63
2019-05-14T13:46:25.138Z,28.24
2019-05-14T13:49:13.176Z,28.16
2019-05-14T13:52:00.783Z,27.99
2019-05-14T13:54:48.493Z,27.86
2019-05-14T13:57:35.846Z,27.51
2019-05-14T14:00:25.098Z,27.87
2019-05-14T14:03:13.029Z,27.60
2019-05-14T14:06:01.029Z,28.56
2019-05-14T14:08:48.975Z,29.09
2019-05-14T14:11:38.380Z,28.57
2019-05-14T14:14:25.816Z,27.63
2019-05-14T14:17:13.254Z,27.41
2019-05-14T14:20:02.009Z,27.59
2019-05-14T14:22:49.417Z,27.85
2019-05-14T14:25:39.276Z,28.43
2019-05-14T14:28:27.344Z,28.40
2019-05-14T14:31:14.907Z,28.40
2019-05-14T14:34:02.013Z,27.92
2019-05-14T14:36:50.459Z,28.08
2019-05-14T14:39:40.167Z,28.07
2019-05-14T14:42:30.435Z,27.77
2019-05-14T14:45:21.698Z,27.80
2019-05-14T14:48:11.855Z,27.43
2019-05-14T14:50:58.684Z,28.20
2019-05-14T14:53:57.767Z,28.06
2019-05-14T14:56:34.639Z,29.13
2019-05-14T14:59:22.420Z,29.65
2019-05-14T15:02:10.514Z,30.46
2019-05-14T15:04:59.630Z,30.86
2019-05-14T15:07:49.622Z,30.56
2019-05-14T15:10:39.272Z,30.94
2019-05-14T15:13:25.861Z,31.62
2019-05-14T15:16:14.151Z,30.72
2019-05-14T15:19:01.986Z,29.41
2019-05-14T15:21:49.437Z,30.19
2019-05-14T15:24:36.950Z,29.12
2019-05-14T15:27:25.377Z,29.33
2019-05-14T15:30:12.672Z,29.52
2019-05-14T15:33:00.157Z,29.90
2019-05-14T15:35:49.062Z,28.75
2019-05-14T15:38:39.366Z,28.37
2019-05-14T15:41:25.617Z,28.55
2019-05-14T15:44:13.274Z,28.10
2019-05-14T15:47:00.818Z,28.54
2019-05-14T15:49:48.969Z,28.57
2019-05-14T15:52:39.650Z,28.51
2019-05-14T15:55:28.879Z,27.59
2019-05-14T15:58:20.860Z,27.82
2019-05-14T16:01:05.482Z,28.24
2019-05-14T16:03:52.821Z,28.73
2019-05-14T16:06:40.278Z,27.90
2019-05-14T16:09:28.938Z,27.69
2019-05-14T16:12:19.480Z,27.89
2019-05-14T16:15:08.378Z,27.96
2019-05-14T16:18:07.921Z,28.23
2019-05-14T16:20:44.597Z,28.80
2019-05-14T16:23:31.646Z,29.06
2019-05-14T16:26:19.135Z,29.71
2019-05-14T16:29:08.992Z,30.02
2019-05-14T16:31:58.071Z,30.34
2019-05-14T16:34:44.733Z,29.49
2019-05-14T16:37:33.105Z,30.18
2019-05-14T16:40:20.977Z,30.17
2019-05-14T16:43:08.373Z,30.36
2019-05-14T16:45:55.674Z,30.69
2019-05-14T16:48:43.246Z,30.61
2019-05-14T16:51:30.544Z,30.94
2019-05-14T16:54:18.332Z,31.21
2019-05-14T16:57:10.693Z,31.06
2019-05-14T16:59:55.243Z,30.96
2019-05-14T17:02:42.887Z,31.11
2019-05-14T17:05:30.389Z,31.01
2019-05-14T17:08:18.984Z,31.72
2019-05-14T17:11:08.702Z,32.46
2019-05-14T17:13:55.354Z,32.96
2019-05-14T17:16:42.754Z,33.37
2019-05-14T17:19:30.362Z,32.97
2019-05-14T17:22:27.776Z,33.23
2019-05-14T17:25:09.368Z,32.75
2019-05-14T17:27:56.402Z,33.34
2019-05-14T17:30:44.152Z,33.45
2019-05-14T17:33:31.805Z,33.88
2019-05-14T17:36:19.505Z,34.24
2019-05-14T17:39:08.702Z,34.69
2019-05-14T17:41:58.772Z,34.80
2019-05-14T17:44:45.105Z,35.46
2019-05-14T17:47:32.672Z,35.36
2019-05-14T17:50:20.301Z,35.00
2019-05-14T17:53:09.718Z,35.31
2019-05-14T17:55:59.275Z,35.10
2019-05-14T17:58:48.950Z,34.67
2019-05-14T18:01:36.386Z,34.45
2019-05-14T18:04:23.829Z,34.43
2019-05-14T18:07:11.480Z,34.76
2019-05-14T18:09:59.005Z,34.56
2019-05-14T18:12:48.299Z,34.75
2019-05-14T18:15:36.241Z,35.18
2019-05-14T18:18:23.753Z,35.72
2019-05-14T18:21:11.299Z,35.67
2019-05-14T18:23:58.718Z,35.59
2019-05-14T18:26:47.976Z,35.54
2019-05-14T18:29:35.163Z,35.06
2019-05-14T18:32:23.045Z,35.06
2019-05-14T18:35:10.387Z,35.35
2019-05-14T18:37:57.702Z,35.73
2019-05-14T18:40:45.356Z,35.64
2019-05-14T18:43:32.743Z,36.24
2019-05-14T18:46:20.081Z,36.33
2019-05-14T18:49:08.758Z,37.04
2019-05-14T18:51:59.123Z,36.77
2019-05-14T18:54:48.159Z,36.99
2019-05-14T18:57:35.036Z,37.31
2019-05-14T19:00:22.661Z,37.51
2019-05-14T19:03:09.748Z,37.55
2019-05-14T19:05:58.667Z,37.66
2019-05-14T19:08:48.308Z,37.67
2019-05-14T19:11:35.317Z,37.87
2019-05-14T19:14:22.625Z,38.31
2019-05-14T19:17:10.417Z,37.76
2019-05-14T19:19:58.870Z,37.79
2019-05-14T19:22:48.909Z,38.32
2019-05-14T19:25:35.642Z,38.25
2019-05-14T19:28:23.100Z,38.30
2019-05-14T19:31:10.965Z,38.56
2019-05-14T19:33:58.308Z,38.18
2019-05-14T19:36:45.787Z,38.40
2019-05-14T19:39:33.308Z,38.91
2019-05-14T19:42:20.407Z,38.45
2019-05-14T19:45:16.664Z,38.47
2019-05-14T19:48:04.457Z,38.67
2019-05-14T19:50:52.152Z,39.91
2019-05-14T19:53:40.245Z,39.54
2019-05-14T19:56:29.313Z,39.98
2019-05-14T19:59:18.295Z,39.52
2019-05-14T20:02:06.107Z,38.64
2019-05-14T20:04:53.587Z,38.56
2019-05-14T20:07:41.528Z,38.86
2019-05-14T20:10:29.337Z,39.24
2019-05-14T20:13:19.319Z,39.49
2019-05-14T20:16:08.490Z,39.54
2019-05-14T20:18:55.300Z,39.84
2019-05-14T20:21:42.687Z,40.17
2019-05-14T20:24:30.040Z,40.66
2019-05-14T20:27:20.669Z,40.60
2019-05-14T20:30:09.297Z,41.02
2019-05-14T20:32:59.255Z,41.30
2019-05-14T20:35:48.566Z,41.50
2019-05-14T20:38:38.613Z,41.44
2019-05-14T20:41:25.404Z,41.71
2019-05-14T20:44:18.922Z,41.68
2019-05-14T20:47:09.084Z,42.14
2019-05-14T20:49:59.844Z,42.32
2019-05-14T20:52:48.504Z,42.41
2019-05-14T20:55:38.997Z,42.71
2019-05-14T20:58:28.932Z,42.77
2019-05-14T21:01:18.507Z,42.92
2019-05-14T21:04:09.050Z,43.28
2019-05-14T21:06:58.620Z,44.09
2019-05-14T21:09:46.211Z,44.06
2019-05-14T21:12:34.790Z,44.55
2019-05-14T21:15:24.994Z,44.46
2019-05-14T21:18:16.261Z,44.62
2019-05-14T21:21:05.154Z,44.62
2019-05-14T21:23:54.976Z,45.92
2019-05-14T21:26:43.832Z,45.65
2019-05-14T21:29:32.081Z,45.90
2019-05-14T21:32:21.301Z,46.25
2019-05-14T21:35:11.593Z,45.76
2019-05-14T21:38:01.121Z,46.40
2019-05-14T21:40:53.034Z,46.33
2019-05-14T21:43:49.183Z,46.39
2019-05-14T21:46:40.107Z,46.56
2019-05-14T21:49:30.705Z,46.32
2019-05-14T21:52:18.857Z,47.52
2019-05-14T21:55:07.555Z,47.31
2019-05-14T21:57:57.461Z,47.64
2019-05-14T22:00:48.666Z,46.93
2019-05-14T22:03:36.163Z,47.80
2019-05-14T22:06:23.580Z,47.75
2019-05-14T22:09:11.301Z,48.53
2019-05-14T22:11:58.981Z,49.21
2019-05-14T22:14:48.181Z,48.49
2019-05-14T22:17:38.245Z,48.01
2019-05-14T22:20:25.435Z,46.91
2019-05-14T22:23:12.539Z,46.63
2019-05-14T22:25:59.928Z,47.19
2019-05-14T22:28:47.989Z,47.38
2019-05-14T22:31:35.432Z,47.16
2019-05-14T22:34:23.172Z,47.60
2019-05-14T22:37:10.402Z,47.71
2019-05-14T22:39:59.047Z,48.10
2019-05-14T22:42:46.869Z,47.35
2019-05-14T22:45:34.254Z,47.53
2019-05-14T22:48:21.735Z,47.17
2019-05-14T22:51:09.231Z,47.22
2019-05-14T22:53:56.280Z,47.67
2019-05-14T22:56:43.663Z,47.70
2019-05-14T22:59:31.440Z,47.37
2019-05-14T23:02:19.511Z,47.91
2019-05-14T23:05:08.332Z,47.83
2019-05-14T23:07:58.318Z,46.83
2019-05-14T23:10:45.570Z,47.24
2019-05-14T23:13:33.779Z,47.56
2019-05-14T23:16:34.403Z,47.29
2019-05-14T23:19:12.964Z,47.58
2019-05-14T23:22:00.682Z,47.40
2019-05-14T23:24:48.226Z,47.52
2019-05-14T23:27:35.517Z,47.73
2019-05-14T23:30:31.969Z,47.33
2019-05-14T23:33:19.696Z,47.22
2019-05-14T23:36:08.811Z,47.49
2019-05-14T23:38:59.135Z,47.76
2019-05-14T23:41:46.089Z,47.90
2019-05-14T23:44:33.641Z,47.77
2019-05-14T23:47:21.309Z,47.97
2019-05-14T23:50:09.042Z,48.43
2019-05-14T23:52:56.794Z,48.79
2019-05-14T23:55:44.969Z,49.35
2019-05-14T23:58:31.979Z,49.93
